Time;durP1;ratioP1;P1;durP2;ratioP2;P2;SDS_P1;SDS_P2;PMS_P1;PMS_P2;Temp;Humidity;BMP_temperature;BMP_pressure;BME280_temperature;BME280_humidity;BME280_pressure;Samples;Min_cycle;Max_cycle;Signal;HPM_P1;HPM_P2
2023/01/27 00:00:19;;;;;;;2.83;1.30;;;4.50;99.90;;;;;;5124249;27;20197;-48
2023/01/27 00:02:47;;;;;;;2.47;1.40;;;4.50;99.90;;;;;;5096460;27;20778;-48
2023/01/27 00:05:15;;;;;;;1.40;1.30;;;4.50;99.90;;;;;;5121829;27;20364;-47
2023/01/27 00:07:45;;;;;;;2.60;1.37;;;4.50;99.90;;;;;;5123357;27;20196;-47
2023/01/27 00:10:14;;;;;;;1.77;1.23;;;4.50;99.90;;;;;;5105932;27;20254;-51
2023/01/27 00:15:26;;;;;;;2.90;1.20;;;4.50;99.90;;;;;;5102969;27;20220;-52
2023/01/27 00:17:54;;;;;;;1.67;1.33;;;4.50;99.90;;;;;;5085663;27;20206;-50
2023/01/27 00:24:34;;;;;;;2.50;1.10;;;4.50;99.90;;;;;;5112396;27;20204;-49
2023/01/27 00:26:00;;;;;;;2.27;1.50;;;4.50;99.90;;;;;;5104988;27;20675;-47
2023/01/27 00:28:30;;;;;;;4.90;1.93;;;4.50;99.90;;;;;;5095949;28;20247;-51
2023/01/27 00:30:58;;;;;;;3.20;1.57;;;4.40;99.90;;;;;;5102300;27;20262;-48
2023/01/27 00:33:26;;;;;;;2.70;1.60;;;4.50;99.90;;;;;;5088270;27;20290;-50
2023/01/27 00:35:58;;;;;;;2.33;1.70;;;4.50;99.90;;;;;;5112974;27;20600;-47
2023/01/27 00:38:26;;;;;;;1.83;1.73;;;4.50;99.90;;;;;;5121022;27;20257;-50
2023/01/27 00:43:34;;;;;;;2.13;1.40;;;4.50;99.90;;;;;;5087758;27;20723;-47
2023/01/27 00:46:01;;;;;;;3.03;1.90;;;4.50;99.90;;;;;;5105182;27;20201;-48
2023/01/27 00:48:30;;;;;;;1.90;1.80;;;4.50;99.90;;;;;;5085698;27;22622;-51
2023/01/27 00:51:00;;;;;;;3.77;1.77;;;4.50;99.90;;;;;;5106762;27;20213;-47
2023/01/27 00:53:27;;;;;;;1.97;1.87;;;4.50;99.90;;;;;;5114243;27;20221;-51
2023/01/27 00:55:54;;;;;;;4.87;2.40;;;4.50;99.90;;;;;;5124299;27;20223;-50
2023/01/27 00:58:21;;;;;;;2.77;1.90;;;4.60;99.90;;;;;;5122616;27;20261;-51
2023/01/27 01:00:48;;;;;;;3.67;1.60;;;4.60;99.90;;;;;;5102502;27;20285;-46
2023/01/27 01:03:16;;;;;;;2.13;1.80;;;4.50;99.90;;;;;;5103059;27;20213;-48
2023/01/27 01:05:44;;;;;;;3.67;1.90;;;4.60;99.90;;;;;;5084172;27;20197;-47
2023/01/27 01:08:14;;;;;;;3.23;2.10;;;4.60;99.90;;;;;;5118538;27;20679;-51
2023/01/27 01:10:41;;;;;;;2.47;1.80;;;4.60;99.90;;;;;;5096976;27;20202;-46
2023/01/27 01:13:10;;;;;;;2.57;1.83;;;4.60;99.90;;;;;;5100571;27;20794;-47
2023/01/27 01:15:38;;;;;;;2.80;2.33;;;4.60;99.90;;;;;;5094137;27;20275;-46
2023/01/27 01:18:07;;;;;;;2.40;2.20;;;4.60;99.90;;;;;;5115743;27;20336;-49
2023/01/27 01:20:37;;;;;;;1.97;1.83;;;4.60;99.90;;;;;;5084996;27;20213;-47
2023/01/27 01:23:05;;;;;;;2.77;1.90;;;4.60;99.90;;;;;;5116156;27;20656;-48
2023/01/27 01:25:33;;;;;;;2.53;2.20;;;4.60;99.90;;;;;;5119117;27;20787;-47
2023/01/27 01:28:00;;;;;;;4.43;2.30;;;4.60;99.90;;;;;;5115963;27;20212;-48
2023/01/27 01:30:27;;;;;;;5.10;2.03;;;4.60;99.90;;;;;;5101052;27;20197;-49
2023/01/27 01:32:55;;;;;;;2.77;2.20;;;4.50;99.90;;;;;;5105601;27;20287;-47
2023/01/27 01:35:24;;;;;;;4.10;2.40;;;4.60;99.90;;;;;;5107474;27;20232;-48
2023/01/27 01:37:51;;;;;;;2.43;2.13;;;4.60;99.90;;;;;;5102513;27;20201;-47
2023/01/27 01:40:20;;;;;;;2.03;1.93;;;4.60;99.90;;;;;;5102060;27;20203;-51
2023/01/27 01:42:57;;;;;;;2.07;1.97;;;4.50;99.90;;;;;;5091958;28;20213;-48
2023/01/27 01:45:55;;;;;;;2.23;2.10;;;4.50;99.90;;;;;;5101195;27;20292;-52
2023/01/27 01:48:30;;;;;;;2.40;2.20;;;4.50;99.90;;;;;;5095663;27;20747;-49
2023/01/27 01:51:01;;;;;;;2.20;2.00;;;4.50;99.90;;;;;;5122541;27;20662;-49
2023/01/27 01:53:34;;;;;;;3.00;2.00;;;4.50;99.90;;;;;;5092074;27;20296;-51
2023/01/27 01:56:10;;;;;;;4.00;2.07;;;4.50;99.90;;;;;;5115332;27;20220;-48
2023/01/27 01:58:39;;;;;;;2.20;2.10;;;4.50;99.90;;;;;;5118863;27;20200;-47
2023/01/27 02:01:06;;;;;;;2.53;2.33;;;4.50;99.90;;;;;;5123775;27;20668;-46
2023/01/27 02:03:37;;;;;;;2.63;1.60;;;4.50;99.90;;;;;;5109084;27;20735;-49
2023/01/27 02:06:05;;;;;;;2.13;2.00;;;4.40;99.90;;;;;;5121073;27;20208;-47
2023/01/27 02:08:38;;;;;;;2.13;2.03;;;4.50;99.90;;;;;;5086374;27;20212;-52
2023/01/27 02:11:08;;;;;;;2.37;2.17;;;4.40;99.90;;;;;;5111299;27;20204;-47
2023/01/27 02:13:37;;;;;;;3.93;2.07;;;4.40;99.90;;;;;;5119897;27;20247;-50
2023/01/27 02:16:06;;;;;;;2.23;2.00;;;4.40;99.90;;;;;;5123784;27;20759;-47
2023/01/27 02:18:33;;;;;;;3.33;2.10;;;4.40;99.90;;;;;;5093166;28;20751;-46
2023/01/27 02:21:01;;;;;;;2.40;1.93;;;4.40;99.90;;;;;;5098845;27;20215;-46
2023/01/27 02:23:50;;;;;;;3.57;2.30;;;4.40;99.90;;;;;;5076986;28;20221;-50
2023/01/27 02:26:22;;;;;;;2.10;2.00;;;4.40;99.90;;;;;;5111551;28;20204;-51
2023/01/27 02:28:54;;;;;;;3.60;2.13;;;4.40;99.90;;;;;;5119208;28;20663;-46
2023/01/27 02:31:23;;;;;;;2.47;2.23;;;4.40;99.90;;;;;;5119353;28;20258;-47
2023/01/27 02:33:51;;;;;;;2.07;1.97;;;4.40;99.90;;;;;;5122141;27;20225;-49
2023/01/27 02:36:18;;;;;;;3.63;2.20;;;4.40;99.90;;;;;;5107997;27;20216;-50
2023/01/27 02:38:49;;;;;;;2.70;2.40;;;4.30;99.90;;;;;;5098990;27;20198;-45
2023/01/27 02:41:21;;;;;;;2.97;2.10;;;4.40;99.90;;;;;;5106244;28;20249;-53
2023/01/27 02:43:49;;;;;;;2.87;2.23;;;4.30;99.90;;;;;;5119770;28;20228;-45
2023/01/27 02:46:17;;;;;;;2.47;2.27;;;4.30;99.90;;;;;;5119892;28;20232;-49
2023/01/27 02:48:44;;;;;;;2.37;2.17;;;4.30;99.90;;;;;;5121215;27;20189;-47
2023/01/27 02:51:11;;;;;;;3.83;2.70;;;4.30;99.90;;;;;;5098364;28;20216;-51
2023/01/27 02:53:41;;;;;;;2.87;2.40;;;4.30;99.90;;;;;;5093543;28;20221;-47
2023/01/27 02:56:08;;;;;;;4.63;2.83;;;4.30;99.90;;;;;;5090412;28;20599;-49
2023/01/27 02:58:37;;;;;;;2.60;2.40;;;4.20;99.90;;;;;;5104464;28;20254;-47
2023/01/27 03:01:08;;;;;;;2.50;2.13;;;4.20;99.90;;;;;;5121634;28;20209;-46
2023/01/27 03:03:45;;;;;;;3.80;2.60;;;4.20;99.90;;;;;;5117775;28;20299;-45
2023/01/27 03:06:12;;;;;;;2.87;2.63;;;4.20;99.90;;;;;;5106844;28;20197;-52
2023/01/27 03:08:39;;;;;;;2.43;2.23;;;4.20;99.90;;;;;;5119925;27;20806;-45
2023/01/27 03:11:07;;;;;;;2.97;2.40;;;4.20;99.90;;;;;;5081483;28;20217;-44
2023/01/27 03:13:35;;;;;;;2.50;2.30;;;4.20;99.90;;;;;;5102994;28;20398;-45
2023/01/27 03:18:52;;;;;;;2.20;2.00;;;4.20;99.90;;;;;;5122269;27;20197;-45
2023/01/27 03:21:20;;;;;;;3.10;2.40;;;4.20;99.90;;;;;;5114329;27;20227;-53
2023/01/27 03:23:48;;;;;;;2.57;2.37;;;4.20;99.90;;;;;;5115783;28;20228;-48
2023/01/27 03:26:19;;;;;;;3.17;2.73;;;4.10;99.90;;;;;;5093873;27;20208;-53
2023/01/27 03:29:53;;;;;;;2.80;2.30;;;4.10;99.90;;;;;;5115244;27;20695;-45
2023/01/27 03:31:41;;;;;;;3.33;2.30;;;4.10;99.90;;;;;;5122260;27;20193;-45
2023/01/27 03:34:09;;;;;;;2.30;1.87;;;4.10;99.90;;;;;;5124499;27;20240;-54
2023/01/27 03:47:45;;;;;;;3.70;2.27;;;4.10;99.90;;;;;;5123998;27;20196;-48
2023/01/27 03:50:17;;;;;;;2.30;2.20;;;4.10;99.90;;;;;;5124750;27;20204;-52
2023/01/27 03:53:01;;;;;;;2.43;2.23;;;4.10;99.90;;;;;;5124028;27;20192;-45
2023/01/27 03:55:29;;;;;;;2.20;2.00;;;4.10;99.90;;;;;;5110940;27;20902;-50
2023/01/27 03:57:56;;;;;;;3.73;2.27;;;4.10;99.90;;;;;;5103826;27;20548;-47
2023/01/27 04:00:24;;;;;;;1.87;1.77;;;4.10;99.90;;;;;;5106677;27;20287;-50
2023/01/27 04:08:21;;;;;;;2.00;1.87;;;4.10;99.90;;;;;;5096630;27;20193;-53
2023/01/27 04:11:53;;;;;;;2.10;1.93;;;4.00;99.90;;;;;;5090359;27;20345;-45
2023/01/27 04:13:34;;;;;;;2.40;2.20;;;4.00;99.90;;;;;;5081448;27;20245;-46
2023/01/27 04:16:01;;;;;;;2.57;2.00;;;4.00;99.90;;;;;;5102731;27;20209;-45
2023/01/27 04:18:29;;;;;;;2.07;1.90;;;4.00;99.90;;;;;;5106394;27;20186;-46
2023/01/27 04:20:56;;;;;;;1.67;1.57;;;4.00;99.90;;;;;;5106070;27;20204;-46
2023/01/27 04:23:23;;;;;;;2.07;1.97;;;4.00;99.90;;;;;;5110744;27;20232;-50
2023/01/27 04:25:53;;;;;;;1.73;1.63;;;4.00;99.90;;;;;;5096247;27;20579;-47
2023/01/27 04:28:20;;;;;;;1.57;1.47;;;4.00;99.90;;;;;;5100511;27;20318;-53
2023/01/27 04:30:47;;;;;;;1.90;1.73;;;4.00;99.90;;;;;;5089568;27;20220;-45
2023/01/27 04:33:15;;;;;;;1.80;1.70;;;4.00;99.90;;;;;;5095851;27;20209;-47
2023/01/27 04:35:44;;;;;;;1.80;1.70;;;4.00;99.90;;;;;;5100294;27;20224;-48
2023/01/27 04:38:12;;;;;;;1.40;1.30;;;4.10;99.90;;;;;;5101826;27;20201;-50
2023/01/27 04:40:39;;;;;;;2.23;1.60;;;4.00;99.90;;;;;;5115220;27;20207;-46
2023/01/27 04:43:05;;;;;;;1.67;1.50;;;4.00;99.90;;;;;;5110358;27;20197;-53
2023/01/27 04:45:32;;;;;;;1.67;1.57;;;4.00;99.90;;;;;;5103204;27;20282;-47
2023/01/27 04:47:59;;;;;;;1.77;1.67;;;4.00;99.90;;;;;;5099040;27;20190;-51
2023/01/27 04:50:26;;;;;;;2.50;1.80;;;4.00;99.90;;;;;;5119189;27;20204;-45
2023/01/27 04:52:55;;;;;;;1.30;1.20;;;4.00;99.90;;;;;;5124414;27;20228;-49
2023/01/27 04:55:22;;;;;;;1.40;1.30;;;4.00;99.90;;;;;;5105765;27;20221;-45
2023/01/27 04:57:49;;;;;;;1.20;1.20;;;4.00;99.90;;;;;;5111833;27;20229;-44
2023/01/27 05:00:17;;;;;;;1.10;1.10;;;3.90;99.90;;;;;;5113271;27;20197;-45
2023/01/27 05:02:44;;;;;;;1.77;1.57;;;3.90;99.90;;;;;;5092360;27;20212;-46
2023/01/27 05:05:11;;;;;;;1.50;1.20;;;3.90;99.90;;;;;;5119041;27;20212;-50
2023/01/27 05:07:38;;;;;;;1.70;1.60;;;3.90;99.90;;;;;;5124944;27;20197;-46
2023/01/27 05:10:08;;;;;;;1.20;1.10;;;3.90;99.90;;;;;;5121571;27;20200;-49
2023/01/27 05:12:34;;;;;;;1.50;1.40;;;3.90;99.90;;;;;;5114239;27;20225;-46
2023/01/27 05:15:01;;;;;;;1.50;1.40;;;3.80;99.90;;;;;;5109891;27;20224;-49
2023/01/27 05:17:31;;;;;;;1.63;1.27;;;3.90;99.90;;;;;;5093367;27;20217;-48
2023/01/27 05:19:58;;;;;;;3.20;0.97;;;3.80;99.90;;;;;;5104668;27;20193;-57
2023/01/27 05:22:25;;;;;;;3.27;1.37;;;3.80;99.90;;;;;;5097877;27;20200;-50
2023/01/27 05:24:52;;;;;;;1.60;1.17;;;3.80;99.90;;;;;;5104570;27;20252;-50
2023/01/27 05:27:20;;;;;;;1.13;1.10;;;3.80;99.90;;;;;;5093564;28;20197;-45
2023/01/27 05:29:47;;;;;;;1.70;1.40;;;3.80;99.90;;;;;;5109510;27;20208;-49
2023/01/27 05:32:14;;;;;;;1.53;1.30;;;3.80;99.90;;;;;;5100553;27;20216;-47
2023/01/27 05:34:41;;;;;;;2.83;1.00;;;3.80;99.90;;;;;;5105640;27;20221;-50
2023/01/27 05:37:07;;;;;;;1.00;0.90;;;3.80;99.90;;;;;;5102623;27;20213;-54
2023/01/27 05:39:34;;;;;;;1.43;1.17;;;3.70;99.90;;;;;;5103375;28;20200;-46
2023/01/27 05:42:01;;;;;;;1.67;1.30;;;3.70;99.90;;;;;;5095774;27;20196;-52
2023/01/27 05:44:29;;;;;;;2.20;0.93;;;3.70;99.90;;;;;;5097227;27;20225;-47
2023/01/27 05:46:56;;;;;;;1.43;1.00;;;3.70;99.90;;;;;;5122903;27;20197;-53
2023/01/27 05:49:23;;;;;;;2.10;1.00;;;3.70;99.90;;;;;;5094478;27;20796;-49
2023/01/27 05:51:50;;;;;;;0.90;0.90;;;3.70;99.90;;;;;;5110919;27;20198;-47
2023/01/27 05:54:17;;;;;;;1.43;1.00;;;3.70;99.90;;;;;;5099890;28;20297;-45
2023/01/27 05:56:44;;;;;;;2.53;1.10;;;3.70;99.90;;;;;;5104213;28;20228;-46
2023/01/27 05:59:12;;;;;;;2.17;1.00;;;3.70;99.90;;;;;;5093889;28;20202;-53
2023/01/27 06:01:40;;;;;;;2.33;1.10;;;3.70;99.90;;;;;;5104117;27;20636;-45
2023/01/27 06:04:07;;;;;;;2.00;1.13;;;3.70;99.90;;;;;;5085297;27;20253;-54
2023/01/27 06:06:34;;;;;;;3.33;1.03;;;3.70;99.90;;;;;;5104172;27;20194;-46
2023/01/27 06:09:02;;;;;;;1.97;1.10;;;3.60;99.90;;;;;;5117285;27;20236;-52
2023/01/27 06:11:28;;;;;;;1.40;1.30;;;3.60;99.90;;;;;;5092748;28;20212;-47
2023/01/27 06:13:55;;;;;;;1.33;0.97;;;3.60;99.90;;;;;;5086882;27;20225;-47
2023/01/27 06:16:23;;;;;;;3.90;0.87;;;3.60;99.90;;;;;;5099892;27;20234;-46
2023/01/27 06:18:52;;;;;;;1.10;0.90;;;3.60;99.90;;;;;;5111637;27;21825;-48
2023/01/27 06:21:22;;;;;;;1.10;1.00;;;3.60;99.90;;;;;;5085339;28;20194;-45
2023/01/27 06:23:49;;;;;;;1.37;1.10;;;3.60;99.90;;;;;;5108006;27;20967;-46
2023/01/27 06:26:17;;;;;;;2.20;1.30;;;3.60;99.90;;;;;;5105658;27;20598;-45
2023/01/27 06:28:44;;;;;;;1.53;0.90;;;3.60;99.90;;;;;;5105537;28;20332;-47
2023/01/27 06:31:14;;;;;;;1.10;1.00;;;3.60;99.90;;;;;;5111479;27;20233;-49
2023/01/27 06:33:41;;;;;;;1.50;1.40;;;3.60;99.90;;;;;;5097502;27;20221;-46
2023/01/27 06:36:11;;;;;;;3.17;1.00;;;3.50;99.90;;;;;;5081558;28;20210;-46
2023/01/27 06:38:38;;;;;;;0.97;0.90;;;3.50;99.90;;;;;;5103608;28;20205;-51
2023/01/27 06:41:05;;;;;;;1.77;1.33;;;3.50;99.90;;;;;;5100719;28;20197;-51
2023/01/27 06:43:33;;;;;;;1.60;1.13;;;3.50;99.90;;;;;;5100269;28;20209;-54
2023/01/27 06:46:00;;;;;;;2.40;1.10;;;3.50;99.90;;;;;;5101964;28;20202;-45
2023/01/27 06:48:27;;;;;;;1.30;1.13;;;3.50;99.90;;;;;;5089968;28;20558;-53
2023/01/27 06:50:55;;;;;;;2.63;1.10;;;3.50;99.90;;;;;;5078613;27;20821;-49
2023/01/27 06:53:24;;;;;;;1.80;1.70;;;3.50;99.90;;;;;;5097392;28;20591;-51
2023/01/27 06:55:56;;;;;;;3.80;1.43;;;3.40;99.90;;;;;;5101000;28;20181;-45
2023/01/27 06:58:23;;;;;;;2.43;1.57;;;3.50;99.90;;;;;;5106584;28;20229;-52
2023/01/27 07:00:50;;;;;;;1.60;1.50;;;3.40;99.90;;;;;;5099288;28;20215;-47
2023/01/27 07:03:17;;;;;;;1.30;1.20;;;3.40;99.90;;;;;;5097636;28;20719;-48
2023/01/27 07:05:44;;;;;;;2.67;1.97;;;3.40;99.90;;;;;;5085989;27;20213;-49
2023/01/27 07:08:11;;;;;;;1.70;1.60;;;3.40;99.90;;;;;;5108430;27;20200;-45
2023/01/27 07:10:39;;;;;;;2.53;2.20;;;3.40;99.90;;;;;;5104319;27;20208;-49
2023/01/27 07:13:06;;;;;;;2.13;1.60;;;3.40;99.90;;;;;;5103116;27;20208;-51
2023/01/27 07:15:34;;;;;;;1.60;1.50;;;3.40;99.90;;;;;;5101988;27;20199;-53
2023/01/27 07:18:00;;;;;;;2.40;1.83;;;3.40;99.90;;;;;;5106334;27;20208;-44
2023/01/27 07:20:29;;;;;;;3.53;1.80;;;3.40;99.90;;;;;;5084804;27;20569;-51
2023/01/27 07:22:57;;;;;;;1.87;1.70;;;3.40;99.90;;;;;;5098494;27;20205;-45
2023/01/27 07:25:24;;;;;;;1.57;1.40;;;3.40;99.90;;;;;;5102946;27;20230;-50
2023/01/27 07:27:52;;;;;;;2.50;1.60;;;3.40;99.90;;;;;;5105632;27;20188;-48
2023/01/27 07:30:19;;;;;;;1.23;1.10;;;3.40;99.90;;;;;;5103121;27;20213;-50
2023/01/27 07:32:47;;;;;;;2.40;1.50;;;3.40;99.90;;;;;;5078544;27;20212;-53
2023/01/27 07:35:14;;;;;;;1.20;1.10;;;3.40;99.90;;;;;;5104699;27;20233;-46
2023/01/27 07:38:03;;;;;;;3.07;1.27;;;3.40;99.90;;;;;;5087182;27;20232;-45
2023/01/27 07:40:30;;;;;;;2.17;1.03;;;3.40;99.90;;;;;;5096528;27;20185;-46
2023/01/27 07:42:59;;;;;;;1.00;1.00;;;3.30;99.90;;;;;;5099916;27;20264;-45
2023/01/27 07:45:28;;;;;;;1.30;1.20;;;3.30;99.90;;;;;;5105767;27;20291;-49
2023/01/27 07:48:00;;;;;;;1.43;1.30;;;3.30;99.90;;;;;;5110694;27;20189;-51
2023/01/27 07:50:28;;;;;;;1.90;1.70;;;3.30;99.90;;;;;;5088321;27;20285;-49
2023/01/27 07:52:58;;;;;;;2.30;1.20;;;3.30;99.90;;;;;;5082795;28;20295;-49
2023/01/27 07:55:25;;;;;;;1.37;1.27;;;3.40;99.90;;;;;;5098350;27;20224;-55
2023/01/27 07:57:53;;;;;;;2.07;1.50;;;3.40;99.90;;;;;;5103481;27;20241;-54
2023/01/27 08:00:22;;;;;;;2.40;1.30;;;3.30;99.90;;;;;;5102729;27;20669;-53
2023/01/27 08:02:50;;;;;;;1.93;1.67;;;3.30;99.90;;;;;;5095543;28;20224;-45
2023/01/27 08:05:17;;;;;;;1.70;1.23;;;3.30;99.90;;;;;;5095712;28;20692;-53
2023/01/27 08:07:43;;;;;;;2.17;1.30;;;3.30;99.90;;;;;;5087161;27;20201;-48
2023/01/27 08:10:10;;;;;;;1.37;1.27;;;3.40;99.90;;;;;;5100382;27;20204;-52
2023/01/27 08:12:37;;;;;;;3.50;2.10;;;3.30;99.90;;;;;;5103025;27;20282;-48
2023/01/27 08:15:05;;;;;;;2.53;1.47;;;3.30;99.90;;;;;;5099877;27;20210;-53
2023/01/27 08:17:33;;;;;;;2.47;1.53;;;3.30;99.90;;;;;;5093748;27;20217;-49
2023/01/27 08:20:00;;;;;;;1.93;1.60;;;3.30;99.90;;;;;;5123041;27;20275;-52
2023/01/27 08:22:28;;;;;;;2.23;1.53;;;3.30;99.90;;;;;;5089512;27;20194;-56
2023/01/27 08:24:55;;;;;;;1.87;1.77;;;3.30;99.90;;;;;;5092695;27;20567;-48
2023/01/27 08:27:21;;;;;;;2.10;1.90;;;3.30;99.90;;;;;;5095585;27;20238;-55
2023/01/27 08:29:49;;;;;;;1.40;1.30;;;3.30;99.90;;;;;;5107241;27;20204;-46
2023/01/27 08:32:16;;;;;;;1.70;1.60;;;3.40;99.90;;;;;;5106425;27;20201;-55
2023/01/27 08:34:44;;;;;;;2.97;1.93;;;3.40;99.90;;;;;;5098967;27;20520;-53
2023/01/27 08:37:11;;;;;;;1.70;1.60;;;3.40;99.90;;;;;;5093513;27;20666;-51
2023/01/27 08:39:38;;;;;;;2.03;1.80;;;3.40;99.90;;;;;;5090415;27;20209;-48
2023/01/27 08:42:05;;;;;;;2.33;1.80;;;3.40;99.90;;;;;;5091489;27;21343;-50
2023/01/27 08:44:32;;;;;;;4.30;1.60;;;3.40;99.90;;;;;;5104971;27;20349;-51
2023/01/27 08:47:20;;;;;;;3.00;1.57;;;3.40;99.90;;;;;;5096109;28;20207;-53
2023/01/27 08:49:48;;;;;;;1.93;1.77;;;3.40;99.90;;;;;;5103145;27;20224;-49
2023/01/27 08:52:15;;;;;;;1.50;1.40;;;3.40;99.90;;;;;;5101300;27;20508;-52
2023/01/27 08:54:41;;;;;;;2.20;2.00;;;3.40;99.90;;;;;;5096157;27;20228;-50
2023/01/27 08:57:08;;;;;;;1.93;1.83;;;3.40;99.90;;;;;;5097388;27;20935;-53
2023/01/27 08:59:35;;;;;;;1.70;1.60;;;3.40;99.90;;;;;;5108955;27;20212;-53
2023/01/27 09:02:02;;;;;;;2.30;1.77;;;3.40;99.90;;;;;;5114086;27;20193;-54
2023/01/27 09:04:29;;;;;;;1.57;1.40;;;3.40;99.90;;;;;;5096549;27;20301;-49
2023/01/27 09:06:57;;;;;;;2.00;1.63;;;3.40;99.90;;;;;;5111888;27;20267;-54
2023/01/27 09:09:24;;;;;;;1.97;1.50;;;3.40;99.90;;;;;;5098264;27;20201;-52
2023/01/27 09:11:51;;;;;;;2.40;1.63;;;3.40;99.90;;;;;;5088897;27;20842;-53
2023/01/27 09:14:18;;;;;;;1.80;1.70;;;3.40;99.90;;;;;;5100499;27;20220;-49
2023/01/27 09:16:46;;;;;;;1.40;1.30;;;3.40;99.90;;;;;;5098140;27;20715;-53
2023/01/27 09:19:12;;;;;;;2.23;1.20;;;3.40;99.90;;;;;;5102485;27;20217;-50
2023/01/27 09:21:39;;;;;;;1.40;1.30;;;3.30;99.90;;;;;;5098149;27;20189;-51
2023/01/27 09:24:07;;;;;;;1.40;1.30;;;3.40;99.90;;;;;;5095684;27;20229;-52
2023/01/27 09:26:53;;;;;;;1.43;1.10;;;3.40;99.90;;;;;;5081035;28;20243;-53
2023/01/27 09:29:20;;;;;;;2.30;1.30;;;3.40;99.90;;;;;;5100569;27;20250;-48
2023/01/27 09:31:47;;;;;;;3.20;1.60;;;3.40;99.90;;;;;;5111513;27;20685;-50
2023/01/27 09:34:16;;;;;;;1.10;1.10;;;3.40;99.90;;;;;;5103889;27;20221;-49
2023/01/27 09:36:47;;;;;;;1.90;1.00;;;3.40;99.90;;;;;;5103378;27;20192;-51
2023/01/27 09:39:18;;;;;;;1.83;1.20;;;3.50;99.90;;;;;;5106973;27;20721;-48
2023/01/27 09:42:09;;;;;;;5.20;1.20;;;3.50;99.90;;;;;;5081210;27;20216;-51
2023/01/27 09:45:00;;;;;;;1.17;1.07;;;3.50;99.90;;;;;;5097342;27;20231;-49
2023/01/27 09:47:41;;;;;;;2.13;1.27;;;3.50;99.90;;;;;;5084405;27;20205;-51
2023/01/27 09:50:25;;;;;;;2.30;1.40;;;3.50;99.90;;;;;;5109176;27;20193;-49
2023/01/27 09:53:21;;;;;;;1.93;1.13;;;3.50;99.90;;;;;;5105237;27;20836;-54
2023/01/27 09:55:55;;;;;;;1.40;1.30;;;3.50;99.90;;;;;;5091396;27;20226;-50
2023/01/27 09:58:32;;;;;;;3.50;1.77;;;3.50;99.90;;;;;;5081882;28;20224;-51
2023/01/27 10:01:09;;;;;;;1.83;1.30;;;3.50;99.90;;;;;;5102910;27;20193;-51
2023/01/27 10:03:54;;;;;;;1.70;1.43;;;3.40;99.90;;;;;;5096385;28;20211;-51
2023/01/27 10:06:39;;;;;;;1.50;1.40;;;3.40;99.90;;;;;;5096187;28;20209;-51
2023/01/27 10:09:42;;;;;;;2.50;1.17;;;3.40;99.90;;;;;;5092432;27;20189;-48
2023/01/27 10:12:21;;;;;;;1.47;1.30;;;3.40;99.90;;;;;;5082185;27;20212;-48
2023/01/27 10:14:59;;;;;;;1.63;1.53;;;3.40;99.90;;;;;;5099145;27;20616;-51
2023/01/27 10:17:37;;;;;;;2.40;1.53;;;3.40;99.90;;;;;;5098530;27;20192;-51
2023/01/27 10:20:20;;;;;;;2.30;1.70;;;3.40;99.90;;;;;;5096814;28;20231;-50
2023/01/27 10:23:03;;;;;;;2.20;1.47;;;3.40;99.90;;;;;;5116134;27;20886;-53
2023/01/27 10:25:42;;;;;;;1.70;1.60;;;3.40;99.90;;;;;;5089231;28;20305;-51
2023/01/27 10:28:13;;;;;;;2.53;1.90;;;3.40;99.90;;;;;;5087274;28;20557;-48
2023/01/27 10:30:45;;;;;;;2.97;1.90;;;3.40;99.90;;;;;;5099332;28;20201;-49
2023/01/27 10:33:17;;;;;;;1.97;1.70;;;3.40;99.90;;;;;;5097192;28;20215;-50
2023/01/27 10:35:50;;;;;;;3.47;1.77;;;3.50;99.90;;;;;;5107506;27;20781;-56
2023/01/27 10:38:34;;;;;;;2.57;1.67;;;3.50;99.90;;;;;;5102100;28;20685;-48
2023/01/27 10:41:13;;;;;;;3.23;1.80;;;3.50;99.90;;;;;;5099086;27;20204;-49
2023/01/27 10:43:52;;;;;;;1.70;1.60;;;3.40;99.90;;;;;;5086969;27;20731;-52
2023/01/27 10:46:25;;;;;;;2.87;1.70;;;3.40;99.90;;;;;;5102529;27;20952;-49
2023/01/27 10:48:59;;;;;;;1.90;1.70;;;3.40;99.90;;;;;;5112868;27;20188;-48
2023/01/27 10:51:32;;;;;;;3.43;1.73;;;3.40;99.90;;;;;;5103384;28;20880;-48
2023/01/27 10:54:05;;;;;;;3.13;1.47;;;3.40;99.90;;;;;;5098790;27;20221;-45
2023/01/27 10:56:37;;;;;;;1.83;1.60;;;3.40;99.90;;;;;;5092427;27;20415;-51
2023/01/27 10:59:36;;;;;;;2.27;1.47;;;3.40;99.90;;;;;;5090659;27;20249;-47
2023/01/27 11:02:14;;;;;;;2.57;1.67;;;3.40;99.90;;;;;;5112511;27;20210;-51
2023/01/27 11:04:44;;;;;;;2.10;1.40;;;3.40;99.90;;;;;;5100350;27;20700;-49
2023/01/27 11:07:16;;;;;;;1.53;1.40;;;3.50;99.90;;;;;;5106305;27;20804;-47
2023/01/27 11:09:49;;;;;;;1.90;1.07;;;3.50;99.90;;;;;;5101670;27;20281;-49
2023/01/27 11:12:16;;;;;;;1.67;1.10;;;3.50;99.90;;;;;;5095509;27;20250;-49
2023/01/27 11:14:47;;;;;;;1.83;0.80;;;3.50;99.90;;;;;;5085220;27;20221;-52
2023/01/27 11:17:19;;;;;;;2.70;1.10;;;3.50;99.90;;;;;;5103649;27;20194;-49
2023/01/27 11:19:56;;;;;;;0.90;0.90;;;3.50;99.90;;;;;;5103934;27;20204;-51
2023/01/27 11:22:27;;;;;;;0.70;0.60;;;3.50;99.90;;;;;;5106791;27;20204;-50
2023/01/27 11:25:02;;;;;;;2.10;0.90;;;3.50;99.90;;;;;;5106659;27;20220;-50
2023/01/27 11:27:51;;;;;;;1.20;0.73;;;3.60;99.90;;;;;;5105929;27;20180;-52
2023/01/27 11:30:25;;;;;;;2.50;0.90;;;3.60;99.90;;;;;;5090312;27;20208;-51
2023/01/27 11:32:59;;;;;;;2.50;1.20;;;3.60;99.90;;;;;;5103763;27;20213;-52
2023/01/27 11:35:26;;;;;;;1.73;0.87;;;3.70;99.90;;;;;;5107110;27;20580;-48
2023/01/27 11:37:53;;;;;;;2.87;1.00;;;3.60;99.90;;;;;;5090656;27;20209;-52
2023/01/27 11:40:26;;;;;;;1.30;1.20;;;3.60;99.90;;;;;;5095723;27;20193;-54
2023/01/27 11:42:56;;;;;;;1.93;0.93;;;3.60;99.90;;;;;;5097755;27;20212;-50
2023/01/27 11:45:25;;;;;;;2.20;1.00;;;3.60;99.90;;;;;;5078948;27;24631;-54
2023/01/27 11:47:56;;;;;;;1.20;0.83;;;3.60;99.90;;;;;;5103257;27;20662;-48
2023/01/27 11:50:34;;;;;;;3.90;0.97;;;3.60;99.90;;;;;;5101138;27;20221;-52
2023/01/27 11:53:14;;;;;;;1.87;0.70;;;3.60;99.90;;;;;;5108337;27;20239;-52
2023/01/27 11:55:45;;;;;;;3.60;1.13;;;3.70;99.90;;;;;;5108148;27;20197;-54
2023/01/27 11:58:19;;;;;;;1.53;0.50;;;3.70;99.90;;;;;;5111528;27;20209;-49
2023/01/27 12:00:51;;;;;;;3.03;0.80;;;3.70;99.90;;;;;;5087907;27;20200;-53
2023/01/27 12:03:22;;;;;;;3.60;1.17;;;3.70;99.90;;;;;;5090776;27;20220;-51
2023/01/27 12:05:54;;;;;;;4.50;0.77;;;3.70;99.90;;;;;;5108466;27;20208;-51
2023/01/27 12:08:39;;;;;;;1.03;0.90;;;3.70;99.90;;;;;;5103927;27;20178;-53
2023/01/27 12:11:23;;;;;;;5.30;1.07;;;3.70;99.90;;;;;;5099177;27;20193;-51
2023/01/27 12:13:52;;;;;;;0.97;0.77;;;3.70;99.90;;;;;;5094221;28;20221;-51
2023/01/27 12:16:21;;;;;;;2.07;0.97;;;3.70;99.90;;;;;;5069565;27;20212;-48
2023/01/27 12:18:53;;;;;;;2.23;1.20;;;3.60;99.90;;;;;;5102068;27;20220;-54
2023/01/27 12:21:21;;;;;;;0.87;0.87;;;3.60;99.90;;;;;;5088462;27;20208;-50
2023/01/27 12:23:51;;;;;;;2.97;0.90;;;3.60;99.90;;;;;;5096568;27;20224;-51
2023/01/27 12:26:30;;;;;;;8.13;7.33;;;3.60;99.90;;;;;;5100111;27;20217;-51
2023/01/27 12:29:06;;;;;;;2.30;1.90;;;3.70;99.90;;;;;;5111935;27;20191;-51
2023/01/27 12:31:45;;;;;;;1.23;1.00;;;3.70;99.90;;;;;;5073249;27;20910;-49
2023/01/27 12:34:24;;;;;;;0.80;0.80;;;3.80;99.90;;;;;;5109589;27;20227;-49
2023/01/27 12:36:52;;;;;;;1.20;0.90;;;3.70;99.90;;;;;;5085410;27;20193;-53
2023/01/27 12:39:31;;;;;;;1.70;0.87;;;3.70;99.90;;;;;;5097212;27;20997;-50
2023/01/27 12:41:58;;;;;;;0.60;0.60;;;3.70;99.90;;;;;;5103769;27;20189;-53
2023/01/27 12:44:26;;;;;;;2.03;0.60;;;3.70;99.90;;;;;;5101661;27;20225;-53
2023/01/27 12:47:01;;;;;;;1.93;0.60;;;3.60;99.90;;;;;;5098024;27;20669;-51
2023/01/27 12:49:33;;;;;;;1.37;0.83;;;3.70;99.90;;;;;;5084280;27;20193;-52
2023/01/27 12:52:03;;;;;;;3.00;0.60;;;3.70;99.90;;;;;;5096849;27;20196;-50
2023/01/27 12:54:31;;;;;;;0.87;0.40;;;3.60;99.90;;;;;;5094931;27;20233;-48
2023/01/27 12:57:02;;;;;;;0.60;0.57;;;3.60;99.90;;;;;;5105829;27;20296;-48
2023/01/27 12:59:29;;;;;;;2.50;0.70;;;3.60;99.90;;;;;;5103743;27;20217;-51
2023/01/27 13:02:05;;;;;;;0.70;0.50;;;3.60;99.90;;;;;;5108952;27;20703;-49
2023/01/27 13:04:32;;;;;;;1.20;0.70;;;3.70;99.90;;;;;;5079388;27;20221;-50
2023/01/27 13:07:06;;;;;;;2.13;0.40;;;3.70;99.90;;;;;;5104887;27;20322;-46
2023/01/27 13:09:38;;;;;;;1.13;0.50;;;3.70;99.90;;;;;;5113450;27;20196;-49
2023/01/27 13:12:16;;;;;;;0.60;0.50;;;3.80;99.90;;;;;;5094955;27;20592;-47
2023/01/27 13:14:43;;;;;;;2.03;0.50;;;3.80;99.90;;;;;;5094069;27;20746;-50
2023/01/27 13:17:35;;;;;;;3.03;0.70;;;3.80;99.90;;;;;;5108926;27;20197;-49
2023/01/27 13:20:07;;;;;;;2.27;0.60;;;3.70;99.90;;;;;;5075421;28;20324;-48
2023/01/27 13:22:45;;;;;;;1.20;0.50;;;3.70;99.90;;;;;;5095487;27;20804;-49
2023/01/27 13:25:18;;;;;;;0.97;0.57;;;3.70;99.90;;;;;;5106735;27;20229;-47
2023/01/27 13:27:47;;;;;;;1.23;0.60;;;3.80;99.90;;;;;;5096995;27;20208;-48
2023/01/27 13:30:23;;;;;;;1.40;0.43;;;3.80;99.90;;;;;;5097058;27;20205;-48
2023/01/27 13:32:56;;;;;;;0.90;0.50;;;3.70;99.90;;;;;;5103264;27;20201;-50
2023/01/27 13:35:30;;;;;;;4.10;0.70;;;3.70;99.90;;;;;;5074387;27;20233;-50
2023/01/27 13:38:02;;;;;;;0.80;0.40;;;3.70;99.90;;;;;;5099501;27;20197;-49
2023/01/27 13:40:34;;;;;;;3.57;0.53;;;3.70;99.90;;;;;;5106447;27;20296;-50
2023/01/27 13:43:10;;;;;;;1.90;0.87;;;3.80;99.90;;;;;;5099233;27;20196;-46